Flora, IL

03:04 AM CDT am 20. Oktober 2014 (GMT -0500)
Flora Municipal | Change Station
CLOSE
Current Station
Flughafen
Location: Flora,
Höhe: 472 ft
Wetterstationen in der Umgebung

Höhe 472 ft 38.67 °N, 88.45 °W | Updated 9 minutes ago

Heiter
Heiter
51 °F
gefühlte 51 °F
N
7
Wind Wechselnd Wind aus Süd-Südwest

Heute
Max. -- | schwach -- °F
--% Regenrisiko
Gestern
Max. -- | schwach -- °F
Precip. -- inch
7:08 AM 6:08 PM
Letztes Viertel, 12% visible
Druck 30.02 inch
Sichtweite 10.0 Meilen
Wolken Heiter
Taupunkt 46 °F
Feuchtigkeit 84%
Regen 0.00 inch
Schneehöhe Nicht verfügbar..
UV 0 von 12
Pollen 1.80 von 12
Luftqualität Nicht verfügbar..
Flu Activity No Activity
METAR KFOA 200755Z AUTO 21006KT 10SM CLR 11/08 A3002 RMK AO2 T01060080

More Conditions Fewer Conditions

Druck 30.02 inch
Sichtweite 10.0 Meilen
Wolken Heiter
Taupunkt 46 °F
Feuchtigkeit 84%
Regen 0.00 inch
Schneehöhe Nicht verfügbar..
UV 0 von 12
Pollen 1.80 von 12
Luftqualität Nicht verfügbar..
Flu Activity No Activity
METAR KFOA 200755Z AUTO 21006KT 10SM CLR 11/08 A3002 RMK AO2 T01060080

More Conditions Fewer Conditions

10-Day Weather Forecast

Almanac

Astronomie

Oct. 20, 2014 Aufgang Untergang
Genaue Zeit 07:08 CDT 18:08 CDT
Bürgerliche Dämmerung 06:41 CDT 18:35 CDT
Nautische Dämmerung 06:10 CDT 19:06 CDT
Astronomische Dämmerung 05:39 CDT 19:37 CDT
Mond 03:58 CDT 16:29 CDT
Länge des sichtbaren Lichts 11h 54m
Tageslänge
11h 00m
Letztes Viertel, 12% of the Moon is Illuminated
Heute
Letztes Viertel
Okt 23
Neu
Okt 30
Erstes Viertel
Nov 6
Vollmond
Nov 14
Letztes Viertel

Heutige Rekorde

State Highs State Lows

Community

WunderPhotos

Upload Photos

1,763,316 Fotos hochgeladen!

Nearby

Schneehöhe

Station Depth Höhe
Kein Neuschnee gemeldet.

Erdbebenaktivität

Stadt Distance Mag. Time & Date
No recent earthquake activity has been reported nearby.
Minimum magnitude displayed is 2.5.

küstennahe Wassertemperaturen

Ort Temperatur
Kein Stationsbericht

Wetterstationen in der Umgebung